Weather at Kasteli Airport

Public forecast

Using degrees Celsius for public forecast. Weather courtesy of forecast.io.

Closest aviation weather report (METAR) to Kasteli Airport

Closest report is Heraklion International Nikos Kazantzakis Airport, 11.4 nm (21.1 km) NW. Retrieved 2022/05/22 18:50 UTC (19 minutes ago):

LGIR 221850Z 20002KT 9999 FEW025 19/14 Q1011 NOSIG

Closest aviation forecast (TAF) to Kasteli Airport

Closest forecast is Heraklion International Nikos Kazantzakis Airport, 11.4 nm (21.1 km) NW. Retrieved 2022/05/22 18:12 UTC (57 minutes ago):

TAF LGIR 221700Z 2218/2318 33010KT 9999 FEW020 BECMG 2308/2310 30014G24KT